sensor_id;sensor_type;location;lat;lon;timestamp;P1;P2;P0
44933;PMS3003;30667;43.614;1.442;2023-05-10T00:00:32;6.25;5.75;1.25
44933;PMS3003;30667;43.614;1.442;2023-05-10T00:02:57;4.00;4.00;1.75
44933;PMS3003;30667;43.614;1.442;2023-05-10T00:05:22;10.00;5.50;1.00
44933;PMS3003;30667;43.614;1.442;2023-05-10T00:07:48;5.50;3.75;1.75
44933;PMS3003;30667;43.614;1.442;2023-05-10T00:10:13;5.75;4.00;1.00
44933;PMS3003;30667;43.614;1.442;2023-05-10T00:12:39;6.00;5.50;1.00
44933;PMS3003;30667;43.614;1.442;2023-05-10T00:15:04;6.50;5.00;1.00
44933;PMS3003;30667;43.614;1.442;2023-05-10T00:17:30;6.20;5.20;1.60
44933;PMS3003;30667;43.614;1.442;2023-05-10T00:19:56;4.00;3.00;1.00
44933;PMS3003;30667;43.614;1.442;2023-05-10T00:22:21;7.50;5.00;1.00
44933;PMS3003;30667;43.614;1.442;2023-05-10T00:24:47;6.00;6.00;1.25
44933;PMS3003;30667;43.614;1.442;2023-05-10T00:27:12;7.25;4.00;1.00
44933;PMS3003;30667;43.614;1.442;2023-05-10T00:29:37;7.75;7.00;2.00
44933;PMS3003;30667;43.614;1.442;2023-05-10T00:32:03;6.75;5.00;2.00
44933;PMS3003;30667;43.614;1.442;2023-05-10T00:34:28;4.00;4.00;1.00
44933;PMS3003;30667;43.614;1.442;2023-05-10T00:36:54;6.25;4.00;1.00
44933;PMS3003;30667;43.614;1.442;2023-05-10T00:39:19;10.00;6.75;2.00
44933;PMS3003;30667;43.614;1.442;2023-05-10T00:41:45;8.25;6.00;2.00
44933;PMS3003;30667;43.614;1.442;2023-05-10T00:44:10;6.25;4.50;1.50
44933;PMS3003;30667;43.614;1.442;2023-05-10T00:46:36;7.50;6.00;2.00
44933;PMS3003;30667;43.614;1.442;2023-05-10T00:49:01;9.00;6.75;1.25
44933;PMS3003;30667;43.614;1.442;2023-05-10T00:51:27;6.50;6.00;1.00
44933;PMS3003;30667;43.614;1.442;2023-05-10T00:53:52;6.25;6.00;2.00
44933;PMS3003;30667;43.614;1.442;2023-05-10T00:56:18;7.40;6.00;1.00
44933;PMS3003;30667;43.614;1.442;2023-05-10T00:58:47;7.20;4.80;1.20
44933;PMS3003;30667;43.614;1.442;2023-05-10T01:01:13;7.75;6.50;2.00
44933;PMS3003;30667;43.614;1.442;2023-05-10T01:03:39;4.50;4.50;1.00
44933;PMS3003;30667;43.614;1.442;2023-05-10T01:06:05;6.80;4.80;1.00
44933;PMS3003;30667;43.614;1.442;2023-05-10T01:08:31;5.20;3.80;1.20
44933;PMS3003;30667;43.614;1.442;2023-05-10T01:10:56;8.40;6.00;1.80
44933;PMS3003;30667;43.614;1.442;2023-05-10T01:16:02;5.40;5.40;1.20
44933;PMS3003;30667;43.614;1.442;2023-05-10T01:18:29;9.00;6.00;1.00
44933;PMS3003;30667;43.614;1.442;2023-05-10T01:26:33;7.40;5.00;1.00
44933;PMS3003;30667;43.614;1.442;2023-05-10T01:35:17;7.00;4.00;1.00
44933;PMS3003;30667;43.614;1.442;2023-05-10T01:40:48;5.40;3.60;1.00
44933;PMS3003;30667;43.614;1.442;2023-05-10T01:43:28;6.00;5.60;2.00
44933;PMS3003;30667;43.614;1.442;2023-05-10T01:46:02;7.60;4.00;1.00
44933;PMS3003;30667;43.614;1.442;2023-05-10T01:48:57;7.00;5.60;1.00
44933;PMS3003;30667;43.614;1.442;2023-05-10T01:51:23;6.60;4.00;1.00
44933;PMS3003;30667;43.614;1.442;2023-05-10T01:53:54;4.00;3.00;0.00
44933;PMS3003;30667;43.614;1.442;2023-05-10T01:56:25;5.20;3.40;1.00
44933;PMS3003;30667;43.614;1.442;2023-05-10T01:58:52;5.60;5.60;1.00
44933;PMS3003;30667;43.614;1.442;2023-05-10T02:01:20;3.60;3.60;1.00
44933;PMS3003;30667;43.614;1.442;2023-05-10T02:03:46;6.00;6.00;1.00
44933;PMS3003;30667;43.614;1.442;2023-05-10T02:06:14;6.00;4.20;1.80
44933;PMS3003;30667;43.614;1.442;2023-05-10T02:08:43;5.40;4.00;1.00
44933;PMS3003;30667;43.614;1.442;2023-05-10T02:11:12;5.60;5.00;1.00
44933;PMS3003;30667;43.614;1.442;2023-05-10T02:13:38;8.00;6.00;1.00
44933;PMS3003;30667;43.614;1.442;2023-05-10T02:16:05;4.60;4.20;0.80
44933;PMS3003;30667;43.614;1.442;2023-05-10T02:18:32;6.80;3.80;1.00
44933;PMS3003;30667;43.614;1.442;2023-05-10T02:21:00;5.60;3.00;0.80
44933;PMS3003;30667;43.614;1.442;2023-05-10T02:23:27;7.20;4.80;0.80
44933;PMS3003;30667;43.614;1.442;2023-05-10T02:25:54;4.00;4.00;1.40
44933;PMS3003;30667;43.614;1.442;2023-05-10T02:28:22;6.40;6.40;1.60
44933;PMS3003;30667;43.614;1.442;2023-05-10T02:30:49;4.00;3.00;1.00
44933;PMS3003;30667;43.614;1.442;2023-05-10T02:33:16;6.60;3.20;1.00
44933;PMS3003;30667;43.614;1.442;2023-05-10T02:35:43;6.00;4.00;0.60
44933;PMS3003;30667;43.614;1.442;2023-05-10T02:38:09;5.00;3.20;1.00
44933;PMS3003;30667;43.614;1.442;2023-05-10T02:40:36;5.00;5.00;1.00
44933;PMS3003;30667;43.614;1.442;2023-05-10T02:43:03;5.80;4.20;1.80
44933;PMS3003;30667;43.614;1.442;2023-05-10T02:45:31;7.20;4.60;1.80
44933;PMS3003;30667;43.614;1.442;2023-05-10T02:47:58;7.00;6.00;1.00
44933;PMS3003;30667;43.614;1.442;2023-05-10T02:50:25;4.00;3.00;1.00
44933;PMS3003;30667;43.614;1.442;2023-05-10T02:52:54;6.60;6.00;1.00
44933;PMS3003;30667;43.614;1.442;2023-05-10T02:55:25;6.60;6.40;1.00
44933;PMS3003;30667;43.614;1.442;2023-05-10T02:57:58;6.40;6.00;1.00
44933;PMS3003;30667;43.614;1.442;2023-05-10T03:00:26;7.00;5.80;1.00
44933;PMS3003;30667;43.614;1.442;2023-05-10T03:02:51;6.00;4.00;1.00
44933;PMS3003;30667;43.614;1.442;2023-05-10T03:05:18;7.40;4.80;1.00
44933;PMS3003;30667;43.614;1.442;2023-05-10T03:07:44;7.20;4.40;1.00
44933;PMS3003;30667;43.614;1.442;2023-05-10T03:10:10;4.00;4.00;1.00
44933;PMS3003;30667;43.614;1.442;2023-05-10T03:17:54;2.00;2.00;0.00
44933;PMS3003;30667;43.614;1.442;2023-05-10T03:20:24;4.00;3.00;0.60
44933;PMS3003;30667;43.614;1.442;2023-05-10T03:25:52;4.20;2.80;0.00
44933;PMS3003;30667;43.614;1.442;2023-05-10T03:28:18;3.60;3.00;0.00
44933;PMS3003;30667;43.614;1.442;2023-05-10T03:30:46;3.00;2.00;0.00
44933;PMS3003;30667;43.614;1.442;2023-05-10T03:33:12;4.00;3.00;0.00
44933;PMS3003;30667;43.614;1.442;2023-05-10T03:35:38;3.00;3.00;0.00
44933;PMS3003;30667;43.614;1.442;2023-05-10T03:38:04;2.75;2.00;0.00
44933;PMS3003;30667;43.614;1.442;2023-05-10T03:40:29;2.50;2.25;0.00
44933;PMS3003;30667;43.614;1.442;2023-05-10T03:42:57;5.40;2.80;0.00
44933;PMS3003;30667;43.614;1.442;2023-05-10T03:45:23;3.00;2.00;0.00
44933;PMS3003;30667;43.614;1.442;2023-05-10T03:47:48;5.50;3.50;0.00
44933;PMS3003;30667;43.614;1.442;2023-05-10T03:50:13;2.00;2.00;0.00
44933;PMS3003;30667;43.614;1.442;2023-05-10T03:52:39;6.00;3.00;0.75
44933;PMS3003;30667;43.614;1.442;2023-05-10T03:55:05;2.00;2.00;0.00
44933;PMS3003;30667;43.614;1.442;2023-05-10T03:57:31;3.40;2.60;1.00
44933;PMS3003;30667;43.614;1.442;2023-05-10T03:59:56;4.25;2.50;0.00
44933;PMS3003;30667;43.614;1.442;2023-05-10T04:02:22;3.50;3.00;0.00
44933;PMS3003;30667;43.614;1.442;2023-05-10T04:04:47;2.50;2.00;0.00
44933;PMS3003;30667;43.614;1.442;2023-05-10T04:07:13;1.00;1.00;0.00
44933;PMS3003;30667;43.614;1.442;2023-05-10T04:09:39;3.00;2.00;0.00
44933;PMS3003;30667;43.614;1.442;2023-05-10T04:12:05;2.00;2.00;0.00
44933;PMS3003;30667;43.614;1.442;2023-05-10T04:14:31;6.50;3.00;0.00
44933;PMS3003;30667;43.614;1.442;2023-05-10T04:16:56;3.00;3.00;0.00
44933;PMS3003;30667;43.614;1.442;2023-05-10T04:19:21;2.00;2.00;0.00
44933;PMS3003;30667;43.614;1.442;2023-05-10T04:21:47;4.25;3.00;0.00
44933;PMS3003;30667;43.614;1.442;2023-05-10T04:24:12;2.00;2.00;0.00
44933;PMS3003;30667;43.614;1.442;2023-05-10T04:26:38;6.00;4.75;0.00
44933;PMS3003;30667;43.614;1.442;2023-05-10T04:29:03;2.00;2.00;0.00
44933;PMS3003;30667;43.614;1.442;2023-05-10T04:31:29;3.00;2.00;0.00
44933;PMS3003;30667;43.614;1.442;2023-05-10T04:33:54;3.00;3.00;1.00
44933;PMS3003;30667;43.614;1.442;2023-05-10T04:36:19;2.50;2.50;0.00
44933;PMS3003;30667;43.614;1.442;2023-05-10T04:38:45;3.75;2.00;0.50
44933;PMS3003;30667;43.614;1.442;2023-05-10T04:41:10;5.75;4.25;0.75
44933;PMS3003;30667;43.614;1.442;2023-05-10T04:43:36;3.00;3.00;0.00
44933;PMS3003;30667;43.614;1.442;2023-05-10T04:46:02;4.20;3.00;1.00
44933;PMS3003;30667;43.614;1.442;2023-05-10T04:48:28;3.00;3.00;0.40
44933;PMS3003;30667;43.614;1.442;2023-05-10T04:50:54;4.80;3.00;0.00
44933;PMS3003;30667;43.614;1.442;2023-05-10T04:53:20;3.00;2.00;0.00
44933;PMS3003;30667;43.614;1.442;2023-05-10T04:55:45;6.50;2.00;0.25
44933;PMS3003;30667;43.614;1.442;2023-05-10T04:58:11;2.40;2.40;0.40
44933;PMS3003;30667;43.614;1.442;2023-05-10T05:00:37;3.00;2.50;0.50
44933;PMS3003;30667;43.614;1.442;2023-05-10T05:03:02;5.00;3.50;0.75
44933;PMS3003;30667;43.614;1.442;2023-05-10T05:05:28;5.25;3.00;0.50
44933;PMS3003;30667;43.614;1.442;2023-05-10T05:07:53;6.00;4.25;1.00
44933;PMS3003;30667;43.614;1.442;2023-05-10T05:10:19;3.00;3.00;1.00
44933;PMS3003;30667;43.614;1.442;2023-05-10T05:12:44;5.00;2.75;0.00
44933;PMS3003;30667;43.614;1.442;2023-05-10T05:15:10;3.00;3.00;0.75
44933;PMS3003;30667;43.614;1.442;2023-05-10T05:17:36;8.00;5.00;1.00
44933;PMS3003;30667;43.614;1.442;2023-05-10T05:20:01;3.00;2.25;0.75
44933;PMS3003;30667;43.614;1.442;2023-05-10T05:22:27;3.00;3.00;1.00
44933;PMS3003;30667;43.614;1.442;2023-05-10T05:24:56;5.40;3.80;1.00
44933;PMS3003;30667;43.614;1.442;2023-05-10T05:27:23;5.60;4.80;0.40
44933;PMS3003;30667;43.614;1.442;2023-05-10T05:29:52;7.00;5.80;1.00
44933;PMS3003;30667;43.614;1.442;2023-05-10T05:32:21;8.20;5.40;1.00
44933;PMS3003;30667;43.614;1.442;2023-05-10T05:34:46;5.50;4.75;1.00
44933;PMS3003;30667;43.614;1.442;2023-05-10T05:37:15;6.20;4.80;0.60
44933;PMS3003;30667;43.614;1.442;2023-05-10T05:39:42;5.60;3.80;0.20
44933;PMS3003;30667;43.614;1.442;2023-05-10T05:42:08;4.60;4.60;1.00
44933;PMS3003;30667;43.614;1.442;2023-05-10T05:44:34;5.60;5.00;0.40
44933;PMS3003;30667;43.614;1.442;2023-05-10T05:47:00;5.00;4.50;0.25
44933;PMS3003;30667;43.614;1.442;2023-05-10T05:49:25;6.00;5.00;0.75
44933;PMS3003;30667;43.614;1.442;2023-05-10T05:51:50;6.25;2.00;0.00
44933;PMS3003;30667;43.614;1.442;2023-05-10T05:54:16;6.25;4.75;0.00
44933;PMS3003;30667;43.614;1.442;2023-05-10T05:56:41;4.25;3.00;0.25
44933;PMS3003;30667;43.614;1.442;2023-05-10T05:59:07;5.50;3.00;1.00
44933;PMS3003;30667;43.614;1.442;2023-05-10T06:01:32;6.00;5.00;1.00
44933;PMS3003;30667;43.614;1.442;2023-05-10T06:03:58;6.50;4.25;1.00
44933;PMS3003;30667;43.614;1.442;2023-05-10T06:06:23;5.75;4.75;1.00
44933;PMS3003;30667;43.614;1.442;2023-05-10T06:08:49;4.50;2.00;0.00
44933;PMS3003;30667;43.614;1.442;2023-05-10T06:11:14;5.50;5.00;1.00
44933;PMS3003;30667;43.614;1.442;2023-05-10T06:13:40;7.00;6.00;1.00
44933;PMS3003;30667;43.614;1.442;2023-05-10T06:16:05;3.00;3.00;0.25
44933;PMS3003;30667;43.614;1.442;2023-05-10T06:18:31;5.75;5.75;1.00
44933;PMS3003;30667;43.614;1.442;2023-05-10T06:20:56;6.50;4.50;1.00
44933;PMS3003;30667;43.614;1.442;2023-05-10T06:23:22;6.00;6.00;1.00
44933;PMS3003;30667;43.614;1.442;2023-05-10T06:25:48;3.25;2.25;0.50
44933;PMS3003;30667;43.614;1.442;2023-05-10T06:28:13;6.00;5.00;1.00
44933;PMS3003;30667;43.614;1.442;2023-05-10T06:30:38;5.00;3.25;1.00
44933;PMS3003;30667;43.614;1.442;2023-05-10T06:33:04;6.25;5.25;1.00
44933;PMS3003;30667;43.614;1.442;2023-05-10T06:35:29;7.00;5.00;1.00
44933;PMS3003;30667;43.614;1.442;2023-05-10T06:37:57;3.00;2.00;0.00
44933;PMS3003;30667;43.614;1.442;2023-05-10T06:40:22;7.00;6.00;1.00
44933;PMS3003;30667;43.614;1.442;2023-05-10T06:42:47;5.25;3.75;0.25
44933;PMS3003;30667;43.614;1.442;2023-05-10T06:45:13;7.00;5.25;1.00
44933;PMS3003;30667;43.614;1.442;2023-05-10T06:47:40;2.40;2.40;0.40
44933;PMS3003;30667;43.614;1.442;2023-05-10T06:50:07;3.60;3.00;0.60
44933;PMS3003;30667;43.614;1.442;2023-05-10T06:52:34;3.20;3.00;0.00
44933;PMS3003;30667;43.614;1.442;2023-05-10T06:55:00;7.00;6.00;1.00
44933;PMS3003;30667;43.614;1.442;2023-05-10T06:57:25;3.50;2.00;0.00
44933;PMS3003;30667;43.614;1.442;2023-05-10T06:59:51;5.50;3.00;0.50
44933;PMS3003;30667;43.614;1.442;2023-05-10T07:02:17;7.00;3.60;0.80
44933;PMS3003;30667;43.614;1.442;2023-05-10T07:04:42;6.75;5.25;1.00
44933;PMS3003;30667;43.614;1.442;2023-05-10T07:07:08;3.25;3.00;1.00
44933;PMS3003;30667;43.614;1.442;2023-05-10T07:09:33;4.25;3.00;0.00
44933;PMS3003;30667;43.614;1.442;2023-05-10T07:11:59;6.25;4.00;1.00
44933;PMS3003;30667;43.614;1.442;2023-05-10T07:14:24;5.50;3.00;0.00
44933;PMS3003;30667;43.614;1.442;2023-05-10T07:16:50;5.50;3.00;0.00
44933;PMS3003;30667;43.614;1.442;2023-05-10T07:19:15;4.75;2.00;0.00
44933;PMS3003;30667;43.614;1.442;2023-05-10T07:21:41;6.50;2.25;1.00
44933;PMS3003;30667;43.614;1.442;2023-05-10T07:24:08;5.60;5.00;0.40
44933;PMS3003;30667;43.614;1.442;2023-05-10T07:26:33;8.50;6.00;1.00
44933;PMS3003;30667;43.614;1.442;2023-05-10T07:28:59;5.75;5.50;0.75
44933;PMS3003;30667;43.614;1.442;2023-05-10T07:31:24;6.00;4.25;1.00
44933;PMS3003;30667;43.614;1.442;2023-05-10T07:33:50;6.00;5.00;0.00
44933;PMS3003;30667;43.614;1.442;2023-05-10T07:36:15;5.25;4.50;0.00
44933;PMS3003;30667;43.614;1.442;2023-05-10T07:38:40;9.75;6.00;0.50
44933;PMS3003;30667;43.614;1.442;2023-05-10T07:41:06;3.00;3.00;1.00
44933;PMS3003;30667;43.614;1.442;2023-05-10T07:43:31;5.00;3.00;0.25
44933;PMS3003;30667;43.614;1.442;2023-05-10T07:45:56;5.50;4.25;0.50
44933;PMS3003;30667;43.614;1.442;2023-05-10T07:48:22;5.50;3.00;0.25
44933;PMS3003;30667;43.614;1.442;2023-05-10T07:50:48;3.00;3.00;1.00
44933;PMS3003;30667;43.614;1.442;2023-05-10T07:53:13;5.25;4.50;1.00
44933;PMS3003;30667;43.614;1.442;2023-05-10T07:55:39;2.00;2.00;0.25
44933;PMS3003;30667;43.614;1.442;2023-05-10T07:58:04;6.00;5.00;1.00
44933;PMS3003;30667;43.614;1.442;2023-05-10T08:00:29;3.00;3.00;0.25
44933;PMS3003;30667;43.614;1.442;2023-05-10T08:02:55;6.75;5.00;0.75
44933;PMS3003;30667;43.614;1.442;2023-05-10T08:05:20;9.25;5.50;0.00
44933;PMS3003;30667;43.614;1.442;2023-05-10T08:07:46;6.75;4.50;1.00
44933;PMS3003;30667;43.614;1.442;2023-05-10T08:10:11;5.50;2.50;0.50
44933;PMS3003;30667;43.614;1.442;2023-05-10T08:12:37;6.00;4.75;1.00
44933;PMS3003;30667;43.614;1.442;2023-05-10T08:15:03;2.40;2.20;0.00
44933;PMS3003;30667;43.614;1.442;2023-05-10T08:17:29;5.80;3.80;0.80
44933;PMS3003;30667;43.614;1.442;2023-05-10T08:19:54;7.50;4.75;1.00
44933;PMS3003;30667;43.614;1.442;2023-05-10T08:22:20;4.75;2.00;0.00
44933;PMS3003;30667;43.614;1.442;2023-05-10T08:24:45;6.50;3.75;1.00
44933;PMS3003;30667;43.614;1.442;2023-05-10T08:27:11;4.00;3.00;1.00
44933;PMS3003;30667;43.614;1.442;2023-05-10T08:29:37;3.50;3.50;0.00
44933;PMS3003;30667;43.614;1.442;2023-05-10T08:32:02;3.40;3.40;0.00
44933;PMS3003;30667;43.614;1.442;2023-05-10T08:34:28;3.50;3.25;1.00
44933;PMS3003;30667;43.614;1.442;2023-05-10T08:36:53;3.50;3.00;1.00
44933;PMS3003;30667;43.614;1.442;2023-05-10T08:39:18;6.50;3.25;1.00
44933;PMS3003;30667;43.614;1.442;2023-05-10T08:41:44;4.00;3.50;0.25
44933;PMS3003;30667;43.614;1.442;2023-05-10T08:44:11;5.60;4.00;1.00
44933;PMS3003;30667;43.614;1.442;2023-05-10T08:46:37;6.40;4.00;1.00
44933;PMS3003;30667;43.614;1.442;2023-05-10T08:49:10;4.20;3.80;0.00
44933;PMS3003;30667;43.614;1.442;2023-05-10T08:51:39;6.20;4.00;1.00
44933;PMS3003;30667;43.614;1.442;2023-05-10T08:54:08;6.60;3.40;0.00
44933;PMS3003;30667;43.614;1.442;2023-05-10T08:56:34;6.00;3.00;0.60
44933;PMS3003;30667;43.614;1.442;2023-05-10T08:59:01;4.80;2.20;0.20
44933;PMS3003;30667;43.614;1.442;2023-05-10T09:01:26;4.00;3.50;1.00
44933;PMS3003;30667;43.614;1.442;2023-05-10T09:03:52;5.00;2.80;0.20
44933;PMS3003;30667;43.614;1.442;2023-05-10T09:06:18;3.00;3.00;0.00
44933;PMS3003;30667;43.614;1.442;2023-05-10T09:08:44;3.00;3.00;0.00
44933;PMS3003;30667;43.614;1.442;2023-05-10T09:11:11;3.80;3.20;0.20
44933;PMS3003;30667;43.614;1.442;2023-05-10T09:13:37;6.40;3.60;0.00
44933;PMS3003;30667;43.614;1.442;2023-05-10T09:16:03;3.20;3.20;1.00
44933;PMS3003;30667;43.614;1.442;2023-05-10T09:18:29;2.00;2.00;0.00
44933;PMS3003;30667;43.614;1.442;2023-05-10T09:20:55;6.25;3.00;0.00
44933;PMS3003;30667;43.614;1.442;2023-05-10T09:23:20;2.75;2.00;0.00
44933;PMS3003;30667;43.614;1.442;2023-05-10T09:25:46;4.00;3.00;1.00
44933;PMS3003;30667;43.614;1.442;2023-05-10T09:28:11;3.80;2.00;0.00
44933;PMS3003;30667;43.614;1.442;2023-05-10T09:30:37;2.50;2.00;0.00
44933;PMS3003;30667;43.614;1.442;2023-05-10T09:33:03;2.20;2.20;0.00
44933;PMS3003;30667;43.614;1.442;2023-05-10T09:35:29;2.75;2.00;0.00
44933;PMS3003;30667;43.614;1.442;2023-05-10T09:37:57;4.00;2.80;0.00
44933;PMS3003;30667;43.614;1.442;2023-05-10T09:40:26;2.20;2.20;0.00
44933;PMS3003;30667;43.614;1.442;2023-05-10T09:42:56;3.80;3.00;0.00
44933;PMS3003;30667;43.614;1.442;2023-05-10T09:45:23;2.00;2.00;0.00
44933;PMS3003;30667;43.614;1.442;2023-05-10T09:47:50;3.20;3.00;0.00
44933;PMS3003;30667;43.614;1.442;2023-05-10T09:50:16;2.20;1.80;0.00
44933;PMS3003;30667;43.614;1.442;2023-05-10T09:58:11;5.00;2.80;0.00
44933;PMS3003;30667;43.614;1.442;2023-05-10T10:00:38;3.60;2.20;0.00
44933;PMS3003;30667;43.614;1.442;2023-05-10T10:03:17;2.80;2.00;0.80
44933;PMS3003;30667;43.614;1.442;2023-05-10T10:05:44;3.00;3.00;0.60
44933;PMS3003;30667;43.614;1.442;2023-05-10T10:08:11;2.00;1.40;0.00
44933;PMS3003;30667;43.614;1.442;2023-05-10T10:10:38;3.80;3.00;0.00
44933;PMS3003;30667;43.614;1.442;2023-05-10T10:13:06;3.40;2.80;0.00
44933;PMS3003;30667;43.614;1.442;2023-05-10T10:15:33;6.80;3.60;0.60
44933;PMS3003;30667;43.614;1.442;2023-05-10T10:17:59;6.80;2.00;0.00
44933;PMS3003;30667;43.614;1.442;2023-05-10T10:20:25;3.20;3.20;0.00
44933;PMS3003;30667;43.614;1.442;2023-05-10T10:22:51;5.60;2.00;0.00
44933;PMS3003;30667;43.614;1.442;2023-05-10T10:25:17;3.00;1.75;0.00
44933;PMS3003;30667;43.614;1.442;2023-05-10T10:35:43;2.40;2.40;0.20
44933;PMS3003;30667;43.614;1.442;2023-05-10T10:38:11;3.20;3.00;0.00
44933;PMS3003;30667;43.614;1.442;2023-05-10T10:40:37;3.20;2.00;0.00
44933;PMS3003;30667;43.614;1.442;2023-05-10T10:48:49;2.40;2.40;0.00
44933;PMS3003;30667;43.614;1.442;2023-05-10T10:51:16;3.00;2.20;0.00
44933;PMS3003;30667;43.614;1.442;2023-05-10T10:53:42;4.75;2.00;0.00
44933;PMS3003;30667;43.614;1.442;2023-05-10T10:56:09;3.20;2.60;0.00
44933;PMS3003;30667;43.614;1.442;2023-05-10T10:58:37;4.40;3.60;1.40
44933;PMS3003;30667;43.614;1.442;2023-05-10T11:01:10;2.20;2.20;0.40
44933;PMS3003;30667;43.614;1.442;2023-05-10T11:03:39;4.00;3.00;0.00
44933;PMS3003;30667;43.614;1.442;2023-05-10T11:06:05;6.20;4.40;1.00
44933;PMS3003;30667;43.614;1.442;2023-05-10T11:08:32;3.20;3.00;1.00
44933;PMS3003;30667;43.614;1.442;2023-05-10T11:13:33;3.50;3.50;1.00
44933;PMS3003;30667;43.614;1.442;2023-05-10T11:15:59;11.80;10.40;7.00
44933;PMS3003;30667;43.614;1.442;2023-05-10T11:18:38;3.80;3.80;1.00
44933;PMS3003;30667;43.614;1.442;2023-05-10T11:21:04;3.00;3.00;0.00
44933;PMS3003;30667;43.614;1.442;2023-05-10T11:23:31;3.50;3.00;0.75
44933;PMS3003;30667;43.614;1.442;2023-05-10T11:25:58;2.00;2.00;0.20
44933;PMS3003;30667;43.614;1.442;2023-05-10T11:28:25;5.20;3.20;0.20
44933;PMS3003;30667;43.614;1.442;2023-05-10T11:30:52;5.60;3.80;1.40
44933;PMS3003;30667;43.614;1.442;2023-05-10T11:33:18;5.40;3.40;1.00
44933;PMS3003;30667;43.614;1.442;2023-05-10T11:35:45;4.00;4.00;0.00
44933;PMS3003;30667;43.614;1.442;2023-05-10T11:38:11;4.00;4.00;0.75
44933;PMS3003;30667;43.614;1.442;2023-05-10T11:40:38;2.60;2.00;0.00
44933;PMS3003;30667;43.614;1.442;2023-05-10T11:43:04;3.40;1.80;0.00
44933;PMS3003;30667;43.614;1.442;2023-05-10T11:45:33;2.00;2.00;0.00
44933;PMS3003;30667;43.614;1.442;2023-05-10T11:47:59;2.80;2.00;0.00
44933;PMS3003;30667;43.614;1.442;2023-05-10T11:50:26;3.00;2.00;0.00
44933;PMS3003;30667;43.614;1.442;2023-05-10T11:52:52;2.20;2.00;0.00
44933;PMS3003;30667;43.614;1.442;2023-05-10T11:55:18;2.00;2.00;0.00
44933;PMS3003;30667;43.614;1.442;2023-05-10T11:57:44;2.00;1.80;0.00
44933;PMS3003;30667;43.614;1.442;2023-05-10T12:00:11;1.60;1.20;0.00
44933;PMS3003;30667;43.614;1.442;2023-05-10T12:02:37;2.00;2.00;0.00
44933;PMS3003;30667;43.614;1.442;2023-05-10T12:05:03;2.00;2.00;0.00
44933;PMS3003;30667;43.614;1.442;2023-05-10T12:07:30;2.40;2.00;0.00
44933;PMS3003;30667;43.614;1.442;2023-05-10T12:10:05;2.60;1.80;0.00
44933;PMS3003;30667;43.614;1.442;2023-05-10T12:12:41;1.80;1.80;0.00
44933;PMS3003;30667;43.614;1.442;2023-05-10T12:15:26;1.00;1.00;0.00
44933;PMS3003;30667;43.614;1.442;2023-05-10T12:17:52;1.40;1.00;0.00
44933;PMS3003;30667;43.614;1.442;2023-05-10T12:20:23;2.00;1.00;0.00
44933;PMS3003;30667;43.614;1.442;2023-05-10T12:22:56;1.40;1.40;0.00
44933;PMS3003;30667;43.614;1.442;2023-05-10T12:25:24;2.20;2.00;0.00
44933;PMS3003;30667;43.614;1.442;2023-05-10T12:27:55;1.00;1.00;0.00
44933;PMS3003;30667;43.614;1.442;2023-05-10T12:30:25;1.00;1.00;0.00
44933;PMS3003;30667;43.614;1.442;2023-05-10T12:32:52;2.60;1.40;0.00
44933;PMS3003;30667;43.614;1.442;2023-05-10T12:35:18;1.20;1.20;0.00
44933;PMS3003;30667;43.614;1.442;2023-05-10T12:37:47;1.20;1.20;0.00
44933;PMS3003;30667;43.614;1.442;2023-05-10T12:40:13;2.80;1.80;0.00
44933;PMS3003;30667;43.614;1.442;2023-05-10T12:42:39;2.80;2.00;0.00
44933;PMS3003;30667;43.614;1.442;2023-05-10T12:45:05;2.20;2.00;0.00
44933;PMS3003;30667;43.614;1.442;2023-05-10T12:47:31;3.60;2.00;0.00
44933;PMS3003;30667;43.614;1.442;2023-05-10T12:49:58;7.00;2.00;0.00
44933;PMS3003;30667;43.614;1.442;2023-05-10T12:52:24;2.20;1.00;0.00
44933;PMS3003;30667;43.614;1.442;2023-05-10T12:54:50;1.80;1.20;0.00
44933;PMS3003;30667;43.614;1.442;2023-05-10T12:57:16;3.00;1.00;0.00
44933;PMS3003;30667;43.614;1.442;2023-05-10T12:59:42;1.00;1.00;0.00
44933;PMS3003;30667;43.614;1.442;2023-05-10T13:02:08;1.00;1.00;0.00
44933;PMS3003;30667;43.614;1.442;2023-05-10T13:04:33;2.40;1.40;0.00
44933;PMS3003;30667;43.614;1.442;2023-05-10T13:06:59;1.25;1.25;0.00
44933;PMS3003;30667;43.614;1.442;2023-05-10T13:09:25;2.25;2.00;0.00
44933;PMS3003;30667;43.614;1.442;2023-05-10T13:11:51;1.00;1.00;0.00
44933;PMS3003;30667;43.614;1.442;2023-05-10T13:14:19;1.00;1.00;0.00
44933;PMS3003;30667;43.614;1.442;2023-05-10T13:16:45;2.00;1.00;0.00
44933;PMS3003;30667;43.614;1.442;2023-05-10T13:19:12;1.20;1.20;0.00
44933;PMS3003;30667;43.614;1.442;2023-05-10T13:21:37;1.00;1.00;0.00
44933;PMS3003;30667;43.614;1.442;2023-05-10T13:24:03;0.75;0.75;0.00
44933;PMS3003;30667;43.614;1.442;2023-05-10T13:26:28;1.00;1.00;0.00
44933;PMS3003;30667;43.614;1.442;2023-05-10T13:28:54;1.00;1.00;0.00
44933;PMS3003;30667;43.614;1.442;2023-05-10T13:31:20;1.80;1.20;0.00
44933;PMS3003;30667;43.614;1.442;2023-05-10T13:33:46;7.00;3.00;0.00
44933;PMS3003;30667;43.614;1.442;2023-05-10T13:36:11;2.00;2.00;0.00
44933;PMS3003;30667;43.614;1.442;2023-05-10T13:38:36;2.00;2.00;0.00
44933;PMS3003;30667;43.614;1.442;2023-05-10T13:41:02;1.00;1.00;0.00
44933;PMS3003;30667;43.614;1.442;2023-05-10T13:43:28;1.25;1.00;0.00
44933;PMS3003;30667;43.614;1.442;2023-05-10T13:45:54;1.00;1.00;0.00
44933;PMS3003;30667;43.614;1.442;2023-05-10T13:48:19;1.00;1.00;0.00
44933;PMS3003;30667;43.614;1.442;2023-05-10T13:50:44;2.75;1.50;0.00
44933;PMS3003;30667;43.614;1.442;2023-05-10T13:53:11;3.80;2.00;0.00
44933;PMS3003;30667;43.614;1.442;2023-05-10T13:55:36;3.50;2.25;0.00
44933;PMS3003;30667;43.614;1.442;2023-05-10T13:58:01;3.50;3.00;1.00
44933;PMS3003;30667;43.614;1.442;2023-05-10T14:00:27;3.00;2.00;0.00
44933;PMS3003;30667;43.614;1.442;2023-05-10T14:02:53;2.00;2.00;0.00
44933;PMS3003;30667;43.614;1.442;2023-05-10T14:05:18;1.00;1.00;0.00
44933;PMS3003;30667;43.614;1.442;2023-05-10T14:07:44;2.50;1.75;0.00
44933;PMS3003;30667;43.614;1.442;2023-05-10T14:10:09;2.00;1.25;0.00
44933;PMS3003;30667;43.614;1.442;2023-05-10T14:12:35;1.25;1.25;0.00
44933;PMS3003;30667;43.614;1.442;2023-05-10T14:15:01;1.40;1.40;0.00
44933;PMS3003;30667;43.614;1.442;2023-05-10T14:17:27;2.00;1.60;0.00
44933;PMS3003;30667;43.614;1.442;2023-05-10T14:19:52;2.00;1.25;0.00
44933;PMS3003;30667;43.614;1.442;2023-05-10T14:22:18;2.25;2.25;0.00
44933;PMS3003;30667;43.614;1.442;2023-05-10T14:24:43;3.00;2.75;0.00
44933;PMS3003;30667;43.614;1.442;2023-05-10T14:27:11;3.00;2.00;0.00
44933;PMS3003;30667;43.614;1.442;2023-05-10T14:29:37;2.25;2.00;0.00
44933;PMS3003;30667;43.614;1.442;2023-05-10T14:32:02;2.25;2.00;0.00
44933;PMS3003;30667;43.614;1.442;2023-05-10T14:34:28;2.00;1.00;0.00
44933;PMS3003;30667;43.614;1.442;2023-05-10T14:36:53;2.25;1.25;0.00
44933;PMS3003;30667;43.614;1.442;2023-05-10T14:39:20;3.00;3.00;0.20
44933;PMS3003;30667;43.614;1.442;2023-05-10T14:41:46;1.80;1.40;0.00
44933;PMS3003;30667;43.614;1.442;2023-05-10T14:44:12;1.75;1.75;0.00
44933;PMS3003;30667;43.614;1.442;2023-05-10T14:46:38;3.25;2.00;0.00
44933;PMS3003;30667;43.614;1.442;2023-05-10T14:49:04;3.40;2.40;0.00
44933;PMS3003;30667;43.614;1.442;2023-05-10T14:51:29;3.00;2.75;0.00
44933;PMS3003;30667;43.614;1.442;2023-05-10T14:53:56;2.00;2.00;0.40
44933;PMS3003;30667;43.614;1.442;2023-05-10T14:56:22;1.00;1.00;0.00
44933;PMS3003;30667;43.614;1.442;2023-05-10T14:58:47;2.00;2.00;0.00
44933;PMS3003;30667;43.614;1.442;2023-05-10T15:01:12;2.00;2.00;0.00
44933;PMS3003;30667;43.614;1.442;2023-05-10T15:03:38;2.75;2.00;0.00
44933;PMS3003;30667;43.614;1.442;2023-05-10T15:06:03;2.50;2.00;0.00